Time;durP1;ratioP1;P1;durP2;ratioP2;P2;SDS_P1;SDS_P2;PMS_P1;PMS_P2;Temp;Humidity;BMP_temperature;BMP_pressure;BME280_temperature;BME280_humidity;BME280_pressure;Samples;Min_cycle;Max_cycle;Signal;HPM_P1;HPM_P2
2024/03/06 00:00:09;;;;;;;;;;;;;;;-144.99;100.00;67352.69;5096195;28;19919;-81
2024/03/06 00:02:35;;;;;;;;;;;;;;;-144.99;100.00;67352.69;5096308;28;19928;-81
2024/03/06 00:05:01;;;;;;;;;;;;;;;-144.99;100.00;67352.69;5096282;28;19916;-81
2024/03/06 00:07:26;;;;;;;;;;;;;;;-144.99;100.00;67352.69;5097639;28;19919;-81
2024/03/06 00:09:52;;;;;;;;;;;;;;;-144.99;100.00;67352.69;5097504;28;19912;-81
2024/03/06 00:12:18;;;;;;;;;;;;;;;-144.99;100.00;67352.69;5098140;28;20398;-81
2024/03/06 00:14:43;;;;;;;;;;;;;;;-144.99;100.00;67352.69;5091689;28;19920;-81
2024/03/06 00:17:09;;;;;;;;;;;;;;;-144.99;100.00;67352.69;5091982;28;19955;-81
2024/03/06 00:19:34;;;;;;;;;;;;;;;-144.99;100.00;67352.69;5098778;28;20544;-81
2024/03/06 00:22:01;;;;;;;;;;;;;;;-144.99;100.00;67352.69;5102396;28;19912;-81
2024/03/06 00:24:26;;;;;;;;;;;;;;;-144.99;100.00;67352.69;5100736;28;20294;-81
2024/03/06 00:26:51;;;;;;;;;;;;;;;-144.99;100.00;67352.69;5102362;28;19912;-81
2024/03/06 00:29:17;;;;;;;;;;;;;;;-144.99;100.00;67352.69;5100620;28;20002;-81
2024/03/06 00:31:42;;;;;;;;;;;;;;;-144.99;100.00;67352.69;5099654;28;19912;-81
2024/03/06 00:34:08;;;;;;;;;;;;;;;-144.99;100.00;67352.69;5099694;28;19919;-81
2024/03/06 00:36:33;;;;;;;;;;;;;;;-144.99;100.00;67352.69;5099732;28;19912;-81
2024/03/06 00:38:59;;;;;;;;;;;;;;;-144.99;100.00;67352.69;5099710;28;20010;-81
2024/03/06 00:41:24;;;;;;;;;;;;;;;-144.99;100.00;67352.69;5097383;28;20322;-81
2024/03/06 00:43:50;;;;;;;;;;;;;;;-144.99;100.00;67352.69;5100001;28;19923;-81
2024/03/06 00:46:15;;;;;;;;;;;;;;;-144.99;100.00;67352.69;5099364;28;19912;-81
2024/03/06 00:48:40;;;;;;;;;;;;;;;-144.99;100.00;67352.69;5090864;28;20367;-81
2024/03/06 00:51:08;;;;;;;;;;;;;;;-144.99;100.00;67352.69;5098917;28;19919;-82
2024/03/06 00:53:36;;;;;;;;;;;;;;;-144.99;100.00;67352.69;5098450;28;19912;-81
2024/03/06 00:56:02;;;;;;;;;;;;;;;-144.99;100.00;67352.69;5097113;28;19912;-81
2024/03/06 00:58:27;;;;;;;;;;;;;;;-144.99;100.00;67352.69;5097742;28;19920;-81
2024/03/06 01:00:52;;;;;;;;;;;;;;;-144.99;100.00;67352.69;5089001;28;19959;-81
2024/03/06 01:03:18;;;;;;;;;;;;;;;-144.99;100.00;67352.69;5098241;28;19920;-81
2024/03/06 01:05:43;;;;;;;;;;;;;;;-144.99;100.00;67352.69;5096004;28;19919;-81
2024/03/06 01:08:08;;;;;;;;;;;;;;;-144.99;100.00;67352.69;5097553;28;19916;-81
2024/03/06 01:10:34;;;;;;;;;;;;;;;-144.99;100.00;67352.69;5095232;28;19912;-81
2024/03/06 01:12:59;;;;;;;;;;;;;;;-144.99;100.00;67352.69;5095786;28;20326;-81
2024/03/06 01:15:24;;;;;;;;;;;;;;;-144.99;100.00;67352.69;5097711;28;19999;-81
2024/03/06 01:17:50;;;;;;;;;;;;;;;-144.99;100.00;67352.69;5097771;28;19978;-81
2024/03/06 01:20:15;;;;;;;;;;;;;;;-144.99;100.00;67352.69;5097156;28;19912;-81
2024/03/06 01:22:40;;;;;;;;;;;;;;;-144.99;100.00;67352.69;5097759;28;19944;-81
2024/03/06 01:25:07;;;;;;;;;;;;;;;-144.99;100.00;67352.69;5097468;28;19947;-81
2024/03/06 01:27:32;;;;;;;;;;;;;;;-144.99;100.00;67352.69;5095585;28;20613;-81
2024/03/06 01:29:57;;;;;;;;;;;;;;;-144.99;100.00;67352.69;5095346;28;20057;-81
2024/03/06 01:32:22;;;;;;;;;;;;;;;-144.99;100.00;67352.69;5095504;28;19912;-81
2024/03/06 01:34:48;;;;;;;;;;;;;;;-144.99;100.00;67352.69;5097072;28;19916;-81
2024/03/06 01:37:13;;;;;;;;;;;;;;;-144.99;100.00;67352.69;5095841;28;20016;-81
2024/03/06 01:39:38;;;;;;;;;;;;;;;-144.99;100.00;67352.69;5096923;28;19930;-81
2024/03/06 01:42:03;;;;;;;;;;;;;;;-144.99;100.00;67352.69;5096718;28;19912;-81
2024/03/06 01:44:29;;;;;;;;;;;;;;;-144.99;100.00;67352.69;5096051;28;19912;-81
2024/03/06 01:46:54;;;;;;;;;;;;;;;-144.99;100.00;67352.69;5097128;28;20390;-81
2024/03/06 01:49:20;;;;;;;;;;;;;;;-144.99;100.00;67352.69;5094514;28;19965;-81
2024/03/06 01:51:48;;;;;;;;;;;;;;;-144.99;100.00;67352.69;5095167;28;19954;-81
2024/03/06 01:54:14;;;;;;;;;;;;;;;-144.99;100.00;67352.69;5097222;28;19913;-81
2024/03/06 01:56:44;;;;;;;;;;;;;;;-144.99;100.00;67352.69;5094835;28;19912;-81
2024/03/06 01:59:10;;;;;;;;;;;;;;;-144.99;100.00;67352.69;5093456;28;19959;-80
2024/03/06 02:01:35;;;;;;;;;;;;;;;-144.99;100.00;67352.69;5092458;28;19977;-80
2024/03/06 02:04:01;;;;;;;;;;;;;;;-144.99;100.00;67352.69;5091120;28;19951;-80
2024/03/06 02:06:26;;;;;;;;;;;;;;;-144.99;100.00;67352.69;5090871;28;19998;-80
2024/03/06 02:08:52;;;;;;;;;;;;;;;-144.99;100.00;67352.69;5091788;28;19965;-80
2024/03/06 02:11:17;;;;;;;;;;;;;;;-144.99;100.00;67352.69;5090727;28;19973;-80
2024/03/06 02:13:43;;;;;;;;;;;;;;;-144.99;100.00;67352.69;5092321;28;19915;-80
2024/03/06 02:16:08;;;;;;;;;;;;;;;-144.99;100.00;67352.69;5090934;28;19918;-80
2024/03/06 02:18:33;;;;;;;;;;;;;;;-144.99;100.00;67352.69;5095183;28;19916;-80
2024/03/06 02:20:58;;;;;;;;;;;;;;;-144.99;100.00;67352.69;5096452;28;19916;-81
2024/03/06 02:23:24;;;;;;;;;;;;;;;-144.99;100.00;67352.69;5087956;28;19912;-80
2024/03/06 02:25:50;;;;;;;;;;;;;;;-144.99;100.00;67352.69;5095962;28;19912;-80
2024/03/06 02:28:16;;;;;;;;;;;;;;;-144.99;100.00;67352.69;5094198;28;19919;-80
2024/03/06 02:30:41;;;;;;;;;;;;;;;-144.99;100.00;67352.69;5095106;28;19992;-80
2024/03/06 02:33:07;;;;;;;;;;;;;;;-144.99;100.00;67352.69;5095861;28;19916;-80
2024/03/06 02:35:32;;;;;;;;;;;;;;;-144.99;100.00;67352.69;5096011;28;19912;-80
2024/03/06 02:37:59;;;;;;;;;;;;;;;-144.99;100.00;67352.69;5095424;28;20015;-80
2024/03/06 02:40:24;;;;;;;;;;;;;;;-144.99;100.00;67352.69;5096071;28;19912;-80
2024/03/06 02:42:49;;;;;;;;;;;;;;;-144.99;100.00;67352.69;5094492;28;19919;-80
2024/03/06 02:45:14;;;;;;;;;;;;;;;-144.99;100.00;67352.69;5094103;28;19919;-80
2024/03/06 02:47:40;;;;;;;;;;;;;;;-144.99;100.00;67352.69;5096067;28;19919;-80
2024/03/06 02:50:07;;;;;;;;;;;;;;;-144.99;100.00;67352.69;5095182;28;19912;-80
2024/03/06 02:52:32;;;;;;;;;;;;;;;-144.99;100.00;67352.69;5094176;28;20290;-80
2024/03/06 02:54:57;;;;;;;;;;;;;;;-144.99;100.00;67352.69;5094271;28;19912;-80
2024/03/06 02:57:23;;;;;;;;;;;;;;;-144.99;100.00;67352.69;5095647;28;19916;-80
2024/03/06 02:59:49;;;;;;;;;;;;;;;-144.99;100.00;67352.69;5093740;28;19916;-81
2024/03/06 03:02:15;;;;;;;;;;;;;;;-144.99;100.00;67352.69;5093940;28;20375;-80
2024/03/06 03:04:40;;;;;;;;;;;;;;;-144.99;100.00;67352.69;5094508;28;19919;-81
2024/03/06 03:07:05;;;;;;;;;;;;;;;-144.99;100.00;67352.69;5101524;28;19919;-81
2024/03/06 03:09:30;;;;;;;;;;;;;;;-144.99;100.00;67352.69;5100561;28;19916;-81
2024/03/06 03:11:55;;;;;;;;;;;;;;;-144.99;100.00;67352.69;5101668;28;19912;-81
2024/03/06 03:14:21;;;;;;;;;;;;;;;-144.99;100.00;67352.69;5101313;28;19965;-81
2024/03/06 03:16:46;;;;;;;;;;;;;;;-144.99;100.00;67352.69;5098644;28;19912;-81
2024/03/06 03:19:11;;;;;;;;;;;;;;;-144.99;100.00;67352.69;5097797;28;19916;-81
2024/03/06 03:21:37;;;;;;;;;;;;;;;-144.99;100.00;67352.69;5100498;28;20447;-80
2024/03/06 03:24:03;;;;;;;;;;;;;;;-144.99;100.00;67352.69;5094738;28;19912;-80
2024/03/06 03:26:28;;;;;;;;;;;;;;;-144.99;100.00;67352.69;5095289;28;19912;-80
2024/03/06 03:28:55;;;;;;;;;;;;;;;-144.99;100.00;67352.69;5093983;28;20007;-81
2024/03/06 03:31:21;;;;;;;;;;;;;;;-144.99;100.00;67352.69;5095013;28;19935;-81
2024/03/06 03:33:46;;;;;;;;;;;;;;;-144.99;100.00;67352.69;5086877;28;20378;-80
2024/03/06 03:36:11;;;;;;;;;;;;;;;-144.99;100.00;67352.69;5095751;28;19973;-81
2024/03/06 03:38:38;;;;;;;;;;;;;;;-144.99;100.00;67352.69;5093696;28;19923;-80
2024/03/06 03:41:07;;;;;;;;;;;;;;;-144.99;100.00;67352.69;5094378;28;20435;-80
2024/03/06 03:43:33;;;;;;;;;;;;;;;-144.99;100.00;67352.69;5095309;28;19919;-80
2024/03/06 03:45:58;;;;;;;;;;;;;;;-144.99;100.00;67352.69;5095110;28;19912;-80
2024/03/06 03:48:23;;;;;;;;;;;;;;;-144.99;100.00;67352.69;5094937;28;19912;-80
2024/03/06 03:50:49;;;;;;;;;;;;;;;-144.99;100.00;67352.69;5094514;28;19912;-80
2024/03/06 03:53:14;;;;;;;;;;;;;;;-144.99;100.00;67352.69;5094762;28;20349;-80
2024/03/06 03:55:39;;;;;;;;;;;;;;;-144.99;100.00;67352.69;5095018;28;20357;-80
2024/03/06 03:58:06;;;;;;;;;;;;;;;-144.99;100.00;67352.69;5093015;28;20298;-80
2024/03/06 04:00:32;;;;;;;;;;;;;;;-144.99;100.00;67352.69;5095183;28;20376;-80
2024/03/06 04:02:57;;;;;;;;;;;;;;;-144.99;100.00;67352.69;5093490;28;19919;-80
2024/03/06 04:05:23;;;;;;;;;;;;;;;-144.99;100.00;67352.69;5093312;28;19912;-80
2024/03/06 04:07:48;;;;;;;;;;;;;;;-144.99;100.00;67352.69;5093432;28;19912;-80
2024/03/06 04:10:13;;;;;;;;;;;;;;;-144.99;100.00;67352.69;5093877;28;19972;-80
2024/03/06 04:12:39;;;;;;;;;;;;;;;-144.99;100.00;67352.69;5094284;28;20382;-80
2024/03/06 04:15:04;;;;;;;;;;;;;;;-144.99;100.00;67352.69;5092735;28;19934;-80
2024/03/06 04:17:30;;;;;;;;;;;;;;;-144.99;100.00;67352.69;5093563;28;19959;-80
2024/03/06 04:19:55;;;;;;;;;;;;;;;-144.99;100.00;67352.69;5092223;28;19912;-80
2024/03/06 04:22:20;;;;;;;;;;;;;;;-144.99;100.00;67352.69;5092907;28;19913;-80
2024/03/06 04:24:46;;;;;;;;;;;;;;;-144.99;100.00;67352.69;5094172;28;19919;-81
2024/03/06 04:27:11;;;;;;;;;;;;;;;-144.99;100.00;67352.69;5092971;28;20328;-80
2024/03/06 04:29:36;;;;;;;;;;;;;;;-144.99;100.00;67352.69;5093346;28;19965;-80
2024/03/06 04:32:01;;;;;;;;;;;;;;;-144.99;100.00;67352.69;5092753;28;20297;-81
2024/03/06 04:34:27;;;;;;;;;;;;;;;-144.99;100.00;67352.69;5094030;28;19912;-80
2024/03/06 04:36:52;;;;;;;;;;;;;;;-144.99;100.00;67352.69;5093615;28;19957;-80
2024/03/06 04:39:17;;;;;;;;;;;;;;;-144.99;100.00;67352.69;5091729;28;19916;-81
2024/03/06 04:41:42;;;;;;;;;;;;;;;-144.99;100.00;67352.69;5091379;28;19912;-81
2024/03/06 04:44:07;;;;;;;;;;;;;;;-144.99;100.00;67352.69;5092641;28;20385;-80
2024/03/06 04:46:33;;;;;;;;;;;;;;;-144.99;100.00;67352.69;5093494;28;19920;-80
2024/03/06 04:48:58;;;;;;;;;;;;;;;-144.99;100.00;67352.69;5091826;28;19947;-80
2024/03/06 04:51:24;;;;;;;;;;;;;;;-144.99;100.00;67352.69;5092299;28;19912;-81
2024/03/06 04:53:49;;;;;;;;;;;;;;;-144.99;100.00;67352.69;5092557;28;20286;-81
2024/03/06 04:56:16;;;;;;;;;;;;;;;-144.99;100.00;67352.69;5093502;28;19912;-80
2024/03/06 04:58:41;;;;;;;;;;;;;;;-144.99;100.00;67352.69;5092737;28;20015;-80
2024/03/06 05:01:06;;;;;;;;;;;;;;;-144.99;100.00;67352.69;5093548;28;19940;-80
2024/03/06 05:03:32;;;;;;;;;;;;;;;-144.99;100.00;67352.69;5091696;28;19916;-80
2024/03/06 05:05:57;;;;;;;;;;;;;;;-144.99;100.00;67352.69;5092308;28;19912;-81
2024/03/06 05:08:22;;;;;;;;;;;;;;;-144.99;100.00;67352.69;5090897;28;20366;-80
2024/03/06 05:10:47;;;;;;;;;;;;;;;-144.99;100.00;67352.69;5091885;28;19908;-80
2024/03/06 05:13:13;;;;;;;;;;;;;;;-144.99;100.00;67352.69;5091550;28;19912;-80
2024/03/06 05:15:38;;;;;;;;;;;;;;;-144.99;100.00;67352.69;5091522;28;19916;-81
2024/03/06 05:18:04;;;;;;;;;;;;;;;-144.99;100.00;67352.69;5093790;28;19916;-82
2024/03/06 05:20:30;;;;;;;;;;;;;;;-144.99;100.00;67352.69;5093364;28;20386;-82
2024/03/06 05:22:56;;;;;;;;;;;;;;;-144.99;100.00;67352.69;5092335;28;20065;-82
2024/03/06 05:25:21;;;;;;;;;;;;;;;-144.99;100.00;67352.69;5091180;28;19953;-82
2024/03/06 05:27:46;;;;;;;;;;;;;;;-144.99;100.00;67352.69;5091449;28;19934;-82
2024/03/06 05:30:11;;;;;;;;;;;;;;;-144.99;100.00;67352.69;5091847;28;19916;-82
2024/03/06 05:32:37;;;;;;;;;;;;;;;-144.99;100.00;67352.69;5092717;28;20012;-82
2024/03/06 05:35:02;;;;;;;;;;;;;;;-144.99;100.00;67352.69;5092433;28;19994;-82
2024/03/06 05:37:28;;;;;;;;;;;;;;;-144.99;100.00;67352.69;5090799;28;20302;-83
2024/03/06 05:39:54;;;;;;;;;;;;;;;-144.99;100.00;67352.69;5091683;28;19912;-82
2024/03/06 05:42:19;;;;;;;;;;;;;;;-144.99;100.00;67352.69;5092232;28;20306;-82
2024/03/06 05:44:44;;;;;;;;;;;;;;;-144.99;100.00;67352.69;5090923;28;20011;-82
2024/03/06 05:47:09;;;;;;;;;;;;;;;-144.99;100.00;67352.69;5091032;28;19969;-82
2024/03/06 05:49:34;;;;;;;;;;;;;;;-144.99;100.00;67352.69;5090292;28;19920;-82
2024/03/06 05:52:00;;;;;;;;;;;;;;;-144.99;100.00;67352.69;5090495;28;20436;-82
2024/03/06 05:54:25;;;;;;;;;;;;;;;-144.99;100.00;67352.69;5092125;28;20369;-82
2024/03/06 05:56:51;;;;;;;;;;;;;;;-144.99;100.00;67352.69;5097967;28;19919;-83
2024/03/06 05:59:16;;;;;;;;;;;;;;;-144.99;100.00;67352.69;5097195;28;19916;-83
2024/03/06 06:01:42;;;;;;;;;;;;;;;-144.99;100.00;67352.69;5097934;28;19912;-83
2024/03/06 06:04:09;;;;;;;;;;;;;;;-144.99;100.00;67352.69;5098216;28;20363;-82
2024/03/06 06:06:34;;;;;;;;;;;;;;;-144.99;100.00;67352.69;5088432;28;20016;-82
2024/03/06 06:08:59;;;;;;;;;;;;;;;-144.99;100.00;67352.69;5094882;28;20362;-83
2024/03/06 06:11:24;;;;;;;;;;;;;;;-144.99;100.00;67352.69;5095596;28;19919;-82
2024/03/06 06:13:50;;;;;;;;;;;;;;;-144.99;100.00;67352.69;5096868;28;19912;-83
2024/03/06 06:16:15;;;;;;;;;;;;;;;-144.99;100.00;67352.69;5094308;28;19912;-83
2024/03/06 06:18:41;;;;;;;;;;;;;;;-144.99;100.00;67352.69;5095180;28;19916;-83
2024/03/06 06:21:07;;;;;;;;;;;;;;;-144.99;100.00;67352.69;5093773;28;19919;-83
2024/03/06 06:23:33;;;;;;;;;;;;;;;-144.99;100.00;67352.69;5095175;28;20313;-82
2024/03/06 06:25:58;;;;;;;;;;;;;;;-144.99;100.00;67352.69;5095845;28;19958;-82
2024/03/06 06:28:23;;;;;;;;;;;;;;;-144.99;100.00;67352.69;5093498;28;19919;-82
2024/03/06 06:30:48;;;;;;;;;;;;;;;-144.99;100.00;67352.69;5095704;28;20229;-82
2024/03/06 06:33:13;;;;;;;;;;;;;;;-144.99;100.00;67352.69;5095340;28;19919;-82
2024/03/06 06:35:39;;;;;;;;;;;;;;;-144.99;100.00;67352.69;5094925;28;19916;-82
2024/03/06 06:38:04;;;;;;;;;;;;;;;-144.99;100.00;67352.69;5094532;28;19943;-82
2024/03/06 06:40:30;;;;;;;;;;;;;;;-144.99;100.00;67352.69;5095859;28;20362;-82
2024/03/06 06:42:55;;;;;;;;;;;;;;;-144.99;100.00;67352.69;5094897;28;19913;-82
2024/03/06 06:45:23;;;;;;;;;;;;;;;-144.99;100.00;67352.69;5094794;28;19912;-82
2024/03/06 06:47:49;;;;;;;;;;;;;;;-144.99;100.00;67352.69;5095470;28;19912;-82
2024/03/06 06:50:14;;;;;;;;;;;;;;;-144.99;100.00;67352.69;5091476;28;19919;-82
2024/03/06 06:52:40;;;;;;;;;;;;;;;-144.99;100.00;67352.69;5091323;28;19912;-82
2024/03/06 06:55:06;;;;;;;;;;;;;;;-144.99;100.00;67352.69;5090508;28;19935;-81
2024/03/06 06:57:32;;;;;;;;;;;;;;;-144.99;100.00;67352.69;5091537;28;19920;-82
2024/03/06 06:59:58;;;;;;;;;;;;;;;-144.99;100.00;67352.69;5091024;28;19912;-82
2024/03/06 07:02:23;;;;;;;;;;;;;;;-144.99;100.00;67352.69;5091304;28;19912;-82
2024/03/06 07:04:48;;;;;;;;;;;;;;;-144.99;100.00;67352.69;5093469;28;19961;-82
2024/03/06 07:07:14;;;;;;;;;;;;;;;-144.99;100.00;67352.69;5093994;28;19916;-82
2024/03/06 07:09:39;;;;;;;;;;;;;;;-144.99;100.00;67352.69;5094554;28;20298;-82
2024/03/06 07:12:04;;;;;;;;;;;;;;;-144.99;100.00;67352.69;5093827;28;19972;-81
2024/03/06 07:14:30;;;;;;;;;;;;;;;-144.99;100.00;67352.69;5093845;28;19916;-81
2024/03/06 07:16:55;;;;;;;;;;;;;;;-144.99;100.00;67352.69;5093947;28;19912;-82
2024/03/06 07:19:20;;;;;;;;;;;;;;;-144.99;100.00;67352.69;5094093;28;19955;-81
2024/03/06 07:21:46;;;;;;;;;;;;;;;-144.99;100.00;67352.69;5095160;28;19939;-82
2024/03/06 07:24:11;;;;;;;;;;;;;;;-144.99;100.00;67352.69;5094250;28;20378;-82
2024/03/06 07:26:36;;;;;;;;;;;;;;;-144.99;100.00;67352.69;5093925;28;19916;-81
2024/03/06 07:29:02;;;;;;;;;;;;;;;-144.99;100.00;67352.69;5093283;28;20393;-81
2024/03/06 07:31:27;;;;;;;;;;;;;;;-144.99;100.00;67352.69;5088870;28;19916;-81
2024/03/06 07:33:52;;;;;;;;;;;;;;;-144.99;100.00;67352.69;5093117;28;19919;-81
2024/03/06 07:36:18;;;;;;;;;;;;;;;-144.99;100.00;67352.69;5092748;28;19916;-81
2024/03/06 07:38:44;;;;;;;;;;;;;;;-144.99;100.00;67352.69;5093826;28;19916;-81
2024/03/06 07:41:10;;;;;;;;;;;;;;;-144.99;100.00;67352.69;5094570;28;20606;-81
2024/03/06 07:43:35;;;;;;;;;;;;;;;-144.99;100.00;67352.69;5092647;28;20389;-81
2024/03/06 07:46:00;;;;;;;;;;;;;;;-144.99;100.00;67352.69;5094255;28;20003;-81
2024/03/06 07:48:26;;;;;;;;;;;;;;;-144.99;100.00;67352.69;5092299;28;19920;-81
2024/03/06 07:50:51;;;;;;;;;;;;;;;-144.99;100.00;67352.69;5093097;28;19912;-81
2024/03/06 07:53:16;;;;;;;;;;;;;;;-144.99;100.00;67352.69;5092843;28;20385;-81
2024/03/06 07:55:42;;;;;;;;;;;;;;;-144.99;100.00;67352.69;5093039;28;19962;-81
2024/03/06 07:58:09;;;;;;;;;;;;;;;-144.99;100.00;67352.69;5092461;28;19916;-82
2024/03/06 08:00:34;;;;;;;;;;;;;;;-144.99;100.00;67352.69;5084361;28;19916;-82
2024/03/06 08:03:00;;;;;;;;;;;;;;;-144.99;100.00;67352.69;5060048;28;19917;-81
2024/03/06 08:05:28;;;;;;;;;;;;;;;-144.99;100.00;67352.69;5062693;28;19913;-82
2024/03/06 08:07:53;;;;;;;;;;;;;;;-144.99;100.00;67352.69;5060749;28;20003;-81
2024/03/06 08:10:19;;;;;;;;;;;;;;;-144.99;100.00;67352.69;5053025;28;20011;-81
2024/03/06 08:12:45;;;;;;;;;;;;;;;-144.99;100.00;67352.69;5053937;28;20011;-81
2024/03/06 08:15:12;;;;;;;;;;;;;;;-144.99;100.00;67352.69;5053656;28;19912;-82
2024/03/06 08:17:41;;;;;;;;;;;;;;;-144.99;100.00;67352.69;5054071;28;20307;-82
2024/03/06 08:20:07;;;;;;;;;;;;;;;-144.99;100.00;67352.69;5053822;28;19913;-82
2024/03/06 08:22:42;;;;;;;;;;;;;;;-144.99;100.00;67352.69;5062123;28;19939;-83
2024/03/06 08:25:09;;;;;;;;;;;;;;;-144.99;100.00;67352.69;5052105;28;20000;-84
2024/03/06 08:27:35;;;;;;;;;;;;;;;-144.99;100.00;67352.69;5058746;28;20425;-82
2024/03/06 08:30:00;;;;;;;;;;;;;;;-144.99;100.00;67352.69;5091631;28;19940;-81
2024/03/06 08:32:25;;;;;;;;;;;;;;;-144.99;100.00;67352.69;5093349;28;19935;-80
2024/03/06 08:34:50;;;;;;;;;;;;;;;-144.99;100.00;67352.69;5093364;28;19919;-83
2024/03/06 08:37:15;;;;;;;;;;;;;;;-144.99;100.00;67352.69;5092061;28;19919;-81
2024/03/06 08:39:41;;;;;;;;;;;;;;;-144.99;100.00;67352.69;5092875;28;19912;-82
2024/03/06 08:42:06;;;;;;;;;;;;;;;-144.99;100.00;67352.69;5092046;28;19912;-81
2024/03/06 08:44:31;;;;;;;;;;;;;;;-144.99;100.00;67352.69;5093416;28;19919;-82
2024/03/06 08:46:56;;;;;;;;;;;;;;;-144.99;100.00;67352.69;5094226;28;19912;-84
2024/03/06 08:49:21;;;;;;;;;;;;;;;-144.99;100.00;67352.69;5096515;28;19919;-82
2024/03/06 08:51:47;;;;;;;;;;;;;;;-144.99;100.00;67352.69;5096211;28;19912;-83
2024/03/06 08:54:12;;;;;;;;;;;;;;;-144.99;100.00;67352.69;5096521;28;19911;-82
2024/03/06 08:56:37;;;;;;;;;;;;;;;-144.99;100.00;67352.69;5097527;28;19912;-81
2024/03/06 08:59:02;;;;;;;;;;;;;;;-144.99;100.00;67352.69;5096661;28;20333;-81
2024/03/06 09:01:28;;;;;;;;;;;;;;;-144.99;100.00;67352.69;5096200;28;19934;-83
2024/03/06 09:03:53;;;;;;;;;;;;;;;-144.99;100.00;67352.69;5097457;28;19920;-81
2024/03/06 09:06:18;;;;;;;;;;;;;;;-144.99;100.00;67352.69;5097093;28;20145;-81
2024/03/06 09:08:43;;;;;;;;;;;;;;;-144.99;100.00;67352.69;5094764;28;19919;-81
2024/03/06 09:11:08;;;;;;;;;;;;;;;-144.99;100.00;67352.69;5095819;28;19916;-81
2024/03/06 09:13:34;;;;;;;;;;;;;;;-144.99;100.00;67352.69;5095710;28;19912;-81
2024/03/06 09:15:59;;;;;;;;;;;;;;;-144.99;100.00;67352.69;5097001;28;19916;-81
2024/03/06 09:18:24;;;;;;;;;;;;;;;-144.99;100.00;67352.69;5096424;28;20291;-81
2024/03/06 09:20:49;;;;;;;;;;;;;;;-144.99;100.00;67352.69;5099113;28;20401;-81
2024/03/06 09:23:15;;;;;;;;;;;;;;;-144.99;100.00;67352.69;5095403;28;20361;-81
2024/03/06 09:25:41;;;;;;;;;;;;;;;-144.99;100.00;67352.69;5095151;28;19919;-81
2024/03/06 09:28:08;;;;;;;;;;;;;;;-144.99;100.00;67352.69;5095468;28;19912;-81
2024/03/06 09:30:33;;;;;;;;;;;;;;;-144.99;100.00;67352.69;5096411;28;19918;-81
2024/03/06 09:32:58;;;;;;;;;;;;;;;-144.99;100.00;67352.69;5081927;28;20014;-81
2024/03/06 09:35:24;;;;;;;;;;;;;;;-144.99;100.00;67352.69;5091630;28;19912;-81
2024/03/06 09:37:49;;;;;;;;;;;;;;;-144.99;100.00;67352.69;5094816;28;19946;-81
2024/03/06 09:40:22;;;;;;;;;;;;;;;-144.99;100.00;67352.69;5092289;28;19969;-81
2024/03/06 09:42:47;;;;;;;;;;;;;;;-144.99;100.00;67352.69;5092465;28;19955;-85
2024/03/06 09:45:12;;;;;;;;;;;;;;;-144.99;100.00;67352.69;5092510;28;19912;-81
2024/03/06 09:47:38;;;;;;;;;;;;;;;-144.99;100.00;67352.69;5089448;28;19916;-82
2024/03/06 09:50:08;;;;;;;;;;;;;;;-144.99;100.00;67352.69;5086295;28;20441;-81
2024/03/06 09:52:34;;;;;;;;;;;;;;;-144.99;100.00;67352.69;5091991;28;19916;-81
2024/03/06 09:55:00;;;;;;;;;;;;;;;-144.99;100.00;67352.69;5091806;28;20306;-81
2024/03/06 09:57:26;;;;;;;;;;;;;;;-144.99;100.00;67352.69;5091617;28;19923;-81
2024/03/06 09:59:51;;;;;;;;;;;;;;;-144.99;100.00;67352.69;5090864;28;19913;-81
2024/03/06 10:02:20;;;;;;;;;;;;;;;-144.99;100.00;67352.69;5084537;28;19912;-81
2024/03/06 10:04:46;;;;;;;;;;;;;;;-144.99;100.00;67352.69;5092961;28;19916;-81
2024/03/06 10:07:11;;;;;;;;;;;;;;;-144.99;100.00;67352.69;5091496;28;19912;-81
2024/03/06 10:09:37;;;;;;;;;;;;;;;-144.99;100.00;67352.69;5082195;28;19912;-81
2024/03/06 10:12:03;;;;;;;;;;;;;;;-144.99;100.00;67352.69;5086048;28;19913;-81
2024/03/06 10:14:28;;;;;;;;;;;;;;;-144.99;100.00;67352.69;5082267;28;20363;-80
2024/03/06 10:16:56;;;;;;;;;;;;;;;-144.99;100.00;67352.69;5092629;28;19958;-81
2024/03/06 10:19:21;;;;;;;;;;;;;;;-144.99;100.00;67352.69;5091108;28;20275;-81
2024/03/06 10:21:51;;;;;;;;;;;;;;;-144.99;100.00;67352.69;5080213;28;19919;-80
2024/03/06 10:24:20;;;;;;;;;;;;;;;-144.99;100.00;67352.69;5080021;28;19912;-81
2024/03/06 10:26:45;;;;;;;;;;;;;;;-144.99;100.00;67352.69;5090343;28;19954;-80
2024/03/06 10:29:11;;;;;;;;;;;;;;;-144.99;100.00;67352.69;5089342;28;20355;-80
2024/03/06 10:31:36;;;;;;;;;;;;;;;-144.99;100.00;67352.69;5082003;28;19916;-80
2024/03/06 10:34:01;;;;;;;;;;;;;;;-144.99;100.00;67352.69;5091580;28;19994;-80
2024/03/06 10:36:27;;;;;;;;;;;;;;;-144.99;100.00;67352.69;5091809;28;19941;-81
2024/03/06 10:38:53;;;;;;;;;;;;;;;-144.99;100.00;67352.69;5091816;28;20340;-81
2024/03/06 10:41:24;;;;;;;;;;;;;;;-144.99;100.00;67352.69;5095228;28;19999;-81
2024/03/06 10:43:54;;;;;;;;;;;;;;;-144.99;100.00;67352.69;5095447;28;20425;-80
2024/03/06 10:46:20;;;;;;;;;;;;;;;-144.99;100.00;67352.69;5095139;28;19912;-81
2024/03/06 10:48:46;;;;;;;;;;;;;;;-144.99;100.00;67352.69;5089276;28;20406;-81
2024/03/06 10:51:13;;;;;;;;;;;;;;;-144.99;100.00;67352.69;5091006;28;19912;-81
2024/03/06 10:53:39;;;;;;;;;;;;;;;-144.99;100.00;67352.69;5095248;28;19953;-81
2024/03/06 10:56:08;;;;;;;;;;;;;;;-144.99;100.00;67352.69;5094859;28;19965;-80
2024/03/06 10:58:34;;;;;;;;;;;;;;;-144.99;100.00;67352.69;5094170;28;19920;-81
2024/03/06 11:01:00;;;;;;;;;;;;;;;-144.99;100.00;67352.69;5095100;28;20360;-81
2024/03/06 11:03:26;;;;;;;;;;;;;;;-144.99;100.00;67352.69;5093519;28;20398;-80
2024/03/06 11:05:51;;;;;;;;;;;;;;;-144.99;100.00;67352.69;5086499;28;19912;-81
2024/03/06 11:08:17;;;;;;;;;;;;;;;-144.99;100.00;67352.69;5087818;28;19965;-81
2024/03/06 11:10:42;;;;;;;;;;;;;;;-144.99;100.00;67352.69;5089049;28;20382;-81
2024/03/06 11:13:19;;;;;;;;;;;;;;;-144.99;100.00;67352.69;5086053;28;19919;-81
2024/03/06 11:15:44;;;;;;;;;;;;;;;-144.99;100.00;67352.69;5081366;28;20437;-81
2024/03/06 11:18:28;;;;;;;;;;;;;;;-144.99;100.00;67352.69;5096091;28;19958;-81
2024/03/06 11:21:19;;;;;;;;;;;;;;;-144.99;100.00;67352.69;5095326;28;19912;-81
2024/03/06 11:24:03;;;;;;;;;;;;;;;-144.99;100.00;67352.69;5095087;28;20192;-81
2024/03/06 11:26:29;;;;;;;;;;;;;;;-144.99;100.00;67352.69;5094150;28;19943;-81
2024/03/06 11:28:56;;;;;;;;;;;;;;;-144.99;100.00;67352.69;5089232;28;20301;-81
2024/03/06 11:31:24;;;;;;;;;;;;;;;-144.99;100.00;67352.69;5092062;28;20195;-81
2024/03/06 11:33:55;;;;;;;;;;;;;;;-144.99;100.00;67352.69;5096247;28;19969;-81
2024/03/06 11:36:22;;;;;;;;;;;;;;;-144.99;100.00;67352.69;5072227;28;19917;-81
2024/03/06 11:38:57;;;;;;;;;;;;;;;-144.99;100.00;67352.69;5096293;28;19939;-81
2024/03/06 11:41:23;;;;;;;;;;;;;;;-144.99;100.00;67352.69;5096764;28;19995;-81
2024/03/06 11:43:50;;;;;;;;;;;;;;;-144.99;100.00;67352.69;5094800;28;19912;-81
2024/03/06 11:46:17;;;;;;;;;;;;;;;-144.99;100.00;67352.69;5094537;28;20306;-81
2024/03/06 11:48:43;;;;;;;;;;;;;;;-144.99;100.00;67352.69;5085773;28;20432;-82
2024/03/06 11:51:08;;;;;;;;;;;;;;;-144.99;100.00;67352.69;5097374;28;19916;-83
2024/03/06 11:53:35;;;;;;;;;;;;;;;-144.99;100.00;67352.69;5098515;28;19911;-82
2024/03/06 11:56:00;;;;;;;;;;;;;;;-144.99;100.00;67352.69;5097575;28;19922;-82
2024/03/06 11:58:25;;;;;;;;;;;;;;;-144.99;100.00;67352.69;5098597;28;20011;-83
2024/03/06 12:00:53;;;;;;;;;;;;;;;-144.99;100.00;67352.69;5100066;28;19912;-82
2024/03/06 12:03:18;;;;;;;;;;;;;;;-144.99;100.00;67352.69;5097242;28;19922;-82
2024/03/06 12:05:44;;;;;;;;;;;;;;;-144.99;100.00;67352.69;5097492;28;19960;-82
2024/03/06 12:08:09;;;;;;;;;;;;;;;-144.99;100.00;67352.69;5096578;28;19916;-82
2024/03/06 12:10:39;;;;;;;;;;;;;;;-144.99;100.00;67352.69;5096372;28;20423;-82